KITH/ITH METAR and TAF weather

Enter ICAO airport designator
Station Type Date Time Source
KITH METAR 2021/03/07 23:56 UTC NOAA

KITH 072356Z 02003KT 10SM CLR M08/M14 A3039 RMK AO2 SLP311 T10781144 11017 21078 53010


Station Type Date Time Source
KITH Decoded METAR 2021/03/07 23:56 UTC NOAA

Ithaca, Ithaca Tompkins Regional Airport, NY, United States (KITH) 42-29-27N 076-27-30W
Mar 07, 2021 - 06:56 PM EST / 2021.03.07 2356 UTC
Wind: from the NNE (020 degrees) at 3 MPH (3 KT):0
Visibility: 10 mile(s):0
Sky conditions: clear
Temperature: 18.0 F (-7.8 C)
Dew Point: 6.1 F (-14.4 C)
Relative Humidity: 59%
Pressure (altimeter): 30.39 in. Hg (1029 hPa)
Pressure tendency: 0.03 inches (1.0 hPa) higher than three hours ago
ob: KITH 072356Z 02003KT 10SM CLR M08/M14 A3039 RMK AO2 SLP311 T10781144 11017 21078 53010
cycle: 0

Station Type Date Time Source
KITH TAF 2021/03/07 22:42 UTC NOAA

TAF
AMD KITH 072140Z 0722/0818 33007KT P6SM SCT035
FM080300 00000KT P6SM BKN250

Example: see airport list